Time,TemperatureF,DewpointF,PressureIn,WindDirection,WindDirectionDegrees,WindSpeedMPH,WindSpeedGustMPH,Humidity,HourlyPrecipIn,Conditions,Clouds,dailyrainin,SoftwareType,DateUTC
2014-01-15 00:00:00,52.1,11.0,30.38,NE,35,10.4,10.4,19,0.00,CLR,,0.00,WeatherDisplay:10.37,2014-01-15 08:00:00,
2014-01-15 00:05:00,52.6,11.4,30.37,NNE,17,11.5,11.5,19,0.00,CLR,,0.00,WeatherDisplay:10.37,2014-01-15 08:05:00,
2014-01-15 00:10:00,52.3,10.0,30.38,NNE,20,6.9,6.9,18,0.00,CLR,,0.00,WeatherDisplay:10.37,2014-01-15 08:10:00,
2014-01-15 00:15:00,51.3,10.4,30.37,NNE,13,5.8,5.8,19,0.00,CLR,,0.00,WeatherDisplay:10.37,2014-01-15 08:15:00,
2014-01-15 00:20:00,50.4,9.6,30.37,NNE,19,2.3,2.3,19,0.00,CLR,,0.00,WeatherDisplay:10.37,2014-01-15 08:20:00,
2014-01-15 00:25:00,49.2,9.8,30.37,North,10,3.5,3.5,20,0.00,CLR,,0.00,WeatherDisplay:10.37,2014-01-15 08:25:00,
2014-01-15 00:30:00,48.6,10.4,30.37,North,11,5.0,5.0,21,0.00,CLR,,0.00,WeatherDisplay:10.37,2014-01-15 08:30:00,
2014-01-15 00:35:00,49.1,10.8,30.37,North,360,10.0,10.0,21,0.00,CLR,,0.00,WeatherDisplay:10.37,2014-01-15 08:35:00,
2014-01-15 00:40:00,49.7,10.2,30.37,NNE,13,10.4,10.4,20,0.00,CLR,,0.00,WeatherDisplay:10.37,2014-01-15 08:40:00,
2014-01-15 00:45:00,49.9,10.4,30.37,North,355,10.4,10.4,20,0.00,CLR,,0.00,WeatherDisplay:10.37,2014-01-15 08:45:00,
2014-01-15 00:50:00,49.4,9.9,30.38,North,10,11.5,11.5,20,0.00,CLR,,0.00,WeatherDisplay:10.37,2014-01-15 08:50:00,
2014-01-15 00:55:00,49.3,10.9,30.38,North,355,10.4,10.4,21,0.00,CLR,,0.00,WeatherDisplay:10.37,2014-01-15 08:55:00,
2014-01-15 01:00:00,49.3,10.9,30.37,North,5,10.0,10.0,21,0.00,CLR,,0.00,WeatherDisplay:10.37,2014-01-15 09:00:00,
2014-01-15 01:05:00,49.1,9.7,30.37,SSE,157,5.0,5.0,20,0.00,CLR,,0.00,WeatherDisplay:10.37,2014-01-15 09:05:00,
2014-01-15 01:10:00,47.6,9.5,30.37,East,87,2.3,2.3,21,0.00,CLR,,0.00,WeatherDisplay:10.37,2014-01-15 09:10:00,
2014-01-15 01:15:00,47.6,9.5,30.37,ENE,74,3.0,3.0,21,0.00,CLR,,0.00,WeatherDisplay:10.37,2014-01-15 09:15:00,
2014-01-15 01:20:00,47.6,10.6,30.38,North,11,3.5,3.5,22,0.00,CLR,,0.00,WeatherDisplay:10.37,2014-01-15 09:20:00,
2014-01-15 01:25:00,48.5,10.3,30.38,SW,219,9.2,9.2,21,0.00,CLR,,0.00,WeatherDisplay:10.37,2014-01-15 09:25:00,
2014-01-15 01:30:00,45.1,8.5,30.38,WSW,246,5.0,5.0,22,0.00,CLR,,0.00,WeatherDisplay:10.37,2014-01-15 09:30:00,
2014-01-15 01:35:00,43.1,8.7,30.38,WSW,238,2.0,2.0,24,0.00,CLR,,0.00,WeatherDisplay:10.37,2014-01-15 09:35:00,
2014-01-15 01:40:00,43.9,9.4,30.38,NE,41,4.6,4.6,24,0.00,CLR,,0.00,WeatherDisplay:10.37,2014-01-15 09:40:00,
2014-01-15 01:45:00,44.8,10.1,30.38,ENE,76,4.0,4.0,24,0.00,CLR,,0.00,WeatherDisplay:10.37,2014-01-15 09:45:00,
2014-01-15 01:50:00,43.4,9.9,30.38,ESE,119,5.0,5.0,25,0.00,CLR,,0.00,WeatherDisplay:10.37,2014-01-15 09:50:00,
2014-01-15 01:55:00,43.6,10.0,30.38,ESE,119,3.5,3.5,25,0.00,CLR,,0.00,WeatherDisplay:10.37,2014-01-15 09:55:00,
2014-01-15 02:00:00,44.1,10.5,30.38,ESE,120,3.5,3.5,25,0.00,CLR,,0.00,WeatherDisplay:10.37,2014-01-15 10:00:00,
2014-01-15 02:05:00,44.2,9.6,30.38,ESE,120,3.5,3.5,24,0.00,CLR,,0.00,WeatherDisplay:10.37,2014-01-15 10:05:00,
2014-01-15 02:10:00,44.6,10.0,30.38,ESE,120,0.0,0.0,24,0.00,CLR,,0.00,WeatherDisplay:10.37,2014-01-15 10:10:00,
2014-01-15 02:15:00,40.7,8.4,30.39,South,190,6.9,6.9,26,0.00,CLR,,0.00,WeatherDisplay:10.37,2014-01-15 10:15:00,
2014-01-15 02:20:00,38.5,8.2,30.39,SW,215,4.0,4.0,28,0.00,CLR,,0.00,WeatherDisplay:10.37,2014-01-15 10:20:00,
2014-01-15 02:25:00,36.8,8.2,30.39,SSW,209,4.0,4.0,30,0.00,CLR,,0.00,WeatherDisplay:10.37,2014-01-15 10:25:00,
2014-01-15 02:30:00,35.5,7.8,30.39,SSW,207,0.0,0.0,31,0.00,CLR,,0.00,WeatherDisplay:10.37,2014-01-15 10:30:00,
2014-01-15 02:35:00,34.7,7.1,30.39,SSW,211,2.0,2.0,31,0.00,CLR,,0.00,WeatherDisplay:10.37,2014-01-15 10:35:00,
2014-01-15 02:40:00,35.5,8.5,30.39,WSW,238,3.5,3.5,32,0.00,CLR,,0.00,WeatherDisplay:10.37,2014-01-15 10:40:00,
2014-01-15 02:45:00,36.7,9.6,30.40,WSW,240,2.3,2.3,32,0.00,CLR,,0.00,WeatherDisplay:10.37,2014-01-15 10:45:00,
2014-01-15 02:50:00,37.4,9.5,30.39,WSW,240,0.0,0.0,31,0.00,CLR,,0.00,WeatherDisplay:10.37,2014-01-15 10:50:00,
2014-01-15 02:55:00,37.7,9.0,30.40,WSW,240,2.3,2.3,30,0.00,CLR,,0.00,WeatherDisplay:10.37,2014-01-15 10:55:00,
2014-01-15 03:00:00,37.9,9.2,30.40,WSW,240,0.0,0.0,30,0.00,CLR,,0.00,WeatherDisplay:10.37,2014-01-15 11:00:00,
2014-01-15 03:05:00,37.7,9.0,30.40,WSW,240,0.0,0.0,30,0.00,CLR,,0.00,WeatherDisplay:10.37,2014-01-15 11:05:00,
2014-01-15 03:10:00,37.5,8.8,30.40,WSW,240,0.0,0.0,30,0.00,CLR,,0.00,WeatherDisplay:10.37,2014-01-15 11:10:00,
2014-01-15 03:15:00,37.2,8.6,30.40,WSW,240,0.0,0.0,30,0.00,CLR,,0.00,WeatherDisplay:10.37,2014-01-15 11:15:00,
2014-01-15 03:20:00,37.4,8.7,30.39,WSW,240,2.3,2.3,30,0.00,CLR,,0.00,WeatherDisplay:10.37,2014-01-15 11:20:00,
2014-01-15 03:25:00,38.2,9.4,30.39,WSW,245,3.5,3.5,30,0.00,CLR,,0.00,WeatherDisplay:10.37,2014-01-15 11:25:00,
2014-01-15 03:30:00,39.1,9.5,30.39,WSW,248,0.0,0.0,29,0.00,CLR,,0.00,WeatherDisplay:10.37,2014-01-15 11:30:00,
2014-01-15 03:35:00,39.4,9.7,30.39,WSW,249,2.0,2.0,29,0.00,CLR,,0.00,WeatherDisplay:10.37,2014-01-15 11:35:00,
2014-01-15 03:40:00,39.6,9.9,30.39,WSW,244,3.5,3.5,29,0.00,CLR,,0.00,WeatherDisplay:10.37,2014-01-15 11:40:00,
2014-01-15 03:45:00,38.8,9.2,30.39,WSW,245,2.0,2.0,29,0.00,CLR,,0.00,WeatherDisplay:10.37,2014-01-15 11:45:00,
2014-01-15 03:50:00,38.4,8.9,30.39,North,5,3.5,3.5,29,0.00,CLR,,0.00,WeatherDisplay:10.37,2014-01-15 11:50:00,
2014-01-15 03:55:00,38.4,8.9,30.39,NNE,14,4.0,4.0,29,0.00,CLR,,0.00,WeatherDisplay:10.37,2014-01-15 11:55:00,
2014-01-15 04:00:00,39.9,9.4,30.39,NNE,22,3.5,3.5,28,0.00,CLR,,0.00,WeatherDisplay:10.37,2014-01-15 12:00:00,
2014-01-15 04:05:00,41.3,9.8,30.39,NE,52,4.0,4.0,27,0.00,CLR,,0.00,WeatherDisplay:10.37,2014-01-15 12:05:00,
2014-01-15 04:10:00,41.8,10.2,30.39,ENE,57,6.9,6.9,27,0.00,CLR,,0.00,WeatherDisplay:10.37,2014-01-15 12:10:00,
2014-01-15 04:15:00,42.4,9.9,30.39,NE,53,5.8,5.8,26,0.00,CLR,,0.00,WeatherDisplay:10.37,2014-01-15 12:15:00,
2014-01-15 04:20:00,42.9,10.3,30.38,NE,42,7.0,7.0,26,0.00,CLR,,0.00,WeatherDisplay:10.37,2014-01-15 12:20:00,
2014-01-15 04:25:00,44.0,10.4,30.38,NNE,19,10.4,10.4,25,0.00,CLR,,0.00,WeatherDisplay:10.37,2014-01-15 12:25:00,
2014-01-15 04:30:00,40.3,8.9,30.39,South,173,5.8,5.8,27,0.00,CLR,,0.00,WeatherDisplay:10.37,2014-01-15 12:30:00,
2014-01-15 04:35:00,36.8,9.7,30.39,South,171,6.9,6.9,32,0.00,CLR,,0.00,WeatherDisplay:10.37,2014-01-15 12:35:00,
2014-01-15 04:40:00,33.3,7.9,30.39,SSW,211,3.0,3.0,34,0.00,CLR,,0.00,WeatherDisplay:10.37,2014-01-15 12:40:00,
2014-01-15 04:45:00,30.4,6.6,30.39,WSW,241,4.0,4.0,36,0.00,CLR,,0.00,WeatherDisplay:10.37,2014-01-15 12:45:00,
2014-01-15 04:50:00,29.9,8.5,30.39,WNW,298,3.5,3.5,40,0.00,CLR,,0.00,WeatherDisplay:10.37,2014-01-15 12:50:00,
2014-01-15 04:55:00,30.3,8.3,30.39,WNW,287,3.5,3.5,39,0.00,CLR,,0.00,WeatherDisplay:10.37,2014-01-15 12:55:00,
2014-01-15 05:00:00,30.5,8.4,30.39,WNW,284,3.5,3.5,39,0.00,CLR,,0.00,WeatherDisplay:10.37,2014-01-15 13:00:00,
2014-01-15 05:05:00,30.7,8.6,30.39,NW,311,3.5,3.5,39,0.00,CLR,,0.00,WeatherDisplay:10.37,2014-01-15 13:05:00,
2014-01-15 05:10:00,31.0,8.9,30.39,NW,316,3.5,3.5,39,0.00,CLR,,0.00,WeatherDisplay:10.37,2014-01-15 13:10:00,
2014-01-15 05:15:00,31.5,9.4,30.39,NW,315,2.3,2.3,39,0.00,CLR,,0.00,WeatherDisplay:10.37,2014-01-15 13:15:00,
2014-01-15 05:20:00,32.6,9.8,30.39,NW,315,2.3,2.3,38,0.00,CLR,,0.00,WeatherDisplay:10.37,2014-01-15 13:20:00,
2014-01-15 05:25:00,33.3,9.8,30.40,NW,315,0.0,0.0,37,0.00,CLR,,0.00,WeatherDisplay:10.37,2014-01-15 13:25:00,
2014-01-15 05:30:00,33.9,10.3,30.39,NW,315,0.0,0.0,37,0.00,CLR,,0.00,WeatherDisplay:10.37,2014-01-15 13:30:00,
2014-01-15 05:35:00,34.4,10.8,30.40,NW,315,0.0,0.0,37,0.00,CLR,,0.00,WeatherDisplay:10.37,2014-01-15 13:35:00,
2014-01-15 05:40:00,35.0,10.1,30.39,NW,321,3.5,3.5,35,0.00,CLR,,0.00,WeatherDisplay:10.37,2014-01-15 13:40:00,
2014-01-15 05:45:00,35.3,10.3,30.39,NW,322,2.3,2.3,35,0.00,CLR,,0.00,WeatherDisplay:10.37,2014-01-15 13:45:00,
2014-01-15 05:50:00,35.4,11.1,30.40,NW,322,2.0,2.0,36,0.00,CLR,,0.00,WeatherDisplay:10.37,2014-01-15 13:50:00,
2014-01-15 05:55:00,35.2,10.9,30.40,NW,322,2.3,0.0,36,0.00,CLR,,0.00,WeatherDisplay:10.37,2014-01-15 13:55:00,
2014-01-15 06:00:00,34.8,10.5,30.40,NW,322,0.0,0.0,36,0.00,CLR,,0.00,WeatherDisplay:10.37,2014-01-15 14:00:00,
2014-01-15 06:05:00,34.2,9.4,30.40,NW,322,0.0,0.0,35,0.00,CLR,,0.00,WeatherDisplay:10.37,2014-01-15 14:05:00,
2014-01-15 06:10:00,33.3,9.2,30.39,NW,322,0.0,0.0,36,0.00,CLR,,0.00,WeatherDisplay:10.37,2014-01-15 14:10:00,
2014-01-15 06:15:00,31.9,7.9,30.40,NW,319,0.0,0.0,36,0.00,CLR,,0.00,WeatherDisplay:10.37,2014-01-15 14:15:00,
2014-01-15 06:20:00,30.9,8.2,30.39,NW,320,0.0,0.0,38,0.00,CLR,,0.00,WeatherDisplay:10.37,2014-01-15 14:20:00,
2014-01-15 06:25:00,30.6,8.5,30.39,NW,319,0.0,0.0,39,0.00,CLR,,0.00,WeatherDisplay:10.37,2014-01-15 14:25:00,
2014-01-15 06:30:00,30.8,9.3,30.39,NW,319,0.0,0.0,40,0.00,CLR,,0.00,WeatherDisplay:10.37,2014-01-15 14:30:00,
2014-01-15 06:35:00,31.5,9.4,30.39,NW,320,0.0,0.0,39,0.00,CLR,,0.00,WeatherDisplay:10.37,2014-01-15 14:35:00,
2014-01-15 06:40:00,31.6,8.9,30.39,NW,320,0.0,0.0,38,0.00,CLR,,0.00,WeatherDisplay:10.37,2014-01-15 14:40:00,
2014-01-15 06:45:00,31.1,7.8,30.39,NW,320,0.0,0.0,37,0.00,CLR,,0.00,WeatherDisplay:10.37,2014-01-15 14:45:00,
2014-01-15 06:50:00,30.8,9.3,30.39,NW,320,0.0,0.0,40,0.00,CLR,,0.00,WeatherDisplay:10.37,2014-01-15 14:50:00,
2014-01-15 06:55:00,31.0,8.9,30.39,NW,320,3.5,3.5,39,0.00,CLR,,0.00,WeatherDisplay:10.37,2014-01-15 14:55:00,
2014-01-15 07:00:00,30.9,8.2,30.39,NW,320,2.3,0.0,38,0.00,CLR,,0.00,WeatherDisplay:10.37,2014-01-15 15:00:00,
2014-01-15 07:05:00,30.6,8.0,30.39,NW,319,0.0,0.0,38,0.00,CLR,,0.00,WeatherDisplay:10.37,2014-01-15 15:05:00,
2014-01-15 07:10:00,30.4,8.4,30.40,NW,319,0.0,0.0,39,0.00,CLR,,0.00,WeatherDisplay:10.37,2014-01-15 15:10:00,
2014-01-15 07:15:00,30.6,8.0,30.40,NNW,340,3.5,3.5,38,0.00,CLR,,0.00,WeatherDisplay:10.37,2014-01-15 15:15:00,
2014-01-15 07:20:00,31.0,8.3,30.40,NNE,13,0.0,0.0,38,0.00,CLR,,0.00,WeatherDisplay:10.37,2014-01-15 15:20:00,
2014-01-15 07:25:00,31.5,8.8,30.40,NNE,13,0.0,0.0,38,0.00,CLR,,0.00,WeatherDisplay:10.37,2014-01-15 15:25:00,
2014-01-15 07:30:00,31.6,9.4,30.40,NNE,13,0.0,0.0,39,0.00,CLR,,0.00,WeatherDisplay:10.37,2014-01-15 15:30:00,
2014-01-15 07:35:00,31.2,7.3,30.40,NNE,13,0.0,0.0,36,0.00,CLR,,0.00,WeatherDisplay:10.37,2014-01-15 15:35:00,
2014-01-15 07:40:00,31.0,7.7,30.40,NNE,13,0.0,0.0,37,0.00,CLR,,0.00,WeatherDisplay:10.37,2014-01-15 15:40:00,
2014-01-15 07:45:00,31.7,9.0,30.40,NNE,13,0.0,0.0,38,0.00,CLR,,0.00,WeatherDisplay:10.37,2014-01-15 15:45:00,
2014-01-15 07:50:00,32.6,9.8,30.40,NNE,13,0.0,0.0,38,0.00,CLR,,0.00,WeatherDisplay:10.37,2014-01-15 15:50:00,
2014-01-15 07:55:00,33.7,10.1,30.40,NNE,13,0.0,0.0,37,0.00,CLR,,0.00,WeatherDisplay:10.37,2014-01-15 15:55:00,
2014-01-15 08:00:00,34.5,10.2,30.40,NNE,13,0.0,0.0,36,0.00,CLR,,0.00,WeatherDisplay:10.37,2014-01-15 16:00:00,
2014-01-15 08:05:00,37.3,11.5,30.40,NNE,13,0.0,0.0,34,0.00,CLR,,0.00,WeatherDisplay:10.37,2014-01-15 16:05:00,
2014-01-15 08:10:00,39.2,11.8,30.40,NNE,13,0.0,0.0,32,0.00,CLR,,0.00,WeatherDisplay:10.37,2014-01-15 16:10:00,
2014-01-15 08:15:00,40.5,12.2,30.40,NNE,13,0.0,0.0,31,0.00,CLR,,0.00,WeatherDisplay:10.37,2014-01-15 16:15:00,
2014-01-15 08:20:00,41.6,12.4,30.41,NNE,13,0.0,0.0,30,0.00,CLR,,0.00,WeatherDisplay:10.37,2014-01-15 16:20:00,
2014-01-15 08:25:00,42.1,12.1,30.41,NNE,13,0.0,0.0,29,0.00,CLR,,0.00,WeatherDisplay:10.37,2014-01-15 16:25:00,
2014-01-15 08:30:00,42.5,11.6,30.41,NNE,13,0.0,0.0,28,0.00,CLR,,0.00,WeatherDisplay:10.37,2014-01-15 16:30:00,
2014-01-15 08:35:00,42.1,12.1,30.41,NNE,13,0.0,0.0,29,0.00,CLR,,0.00,WeatherDisplay:10.37,2014-01-15 16:35:00,
2014-01-15 08:40:00,42.3,12.3,30.41,NNE,13,0.0,0.0,29,0.00,CLR,,0.00,WeatherDisplay:10.37,2014-01-15 16:40:00,
2014-01-15 08:45:00,43.6,12.6,30.41,NNE,15,2.0,2.0,28,0.00,CLR,,0.00,WeatherDisplay:10.37,2014-01-15 16:45:00,
2014-01-15 08:50:00,44.0,12.1,30.41,NNE,15,0.0,0.0,27,0.00,CLR,,0.00,WeatherDisplay:10.37,2014-01-15 16:50:00,
2014-01-15 08:55:00,44.4,12.5,30.41,NNE,30,4.0,4.0,27,0.00,CLR,,0.00,WeatherDisplay:10.37,2014-01-15 16:55:00,
2014-01-15 09:00:00,44.1,12.2,30.41,ESE,103,4.6,4.6,27,0.00,CLR,,0.00,WeatherDisplay:10.37,2014-01-15 17:00:00,
2014-01-15 09:05:00,43.8,11.9,30.42,ESE,106,5.8,5.8,27,0.00,CLR,,0.00,WeatherDisplay:10.37,2014-01-15 17:05:00,
2014-01-15 09:10:00,43.8,11.9,30.42,ESE,107,5.0,5.0,27,0.00,CLR,,0.00,WeatherDisplay:10.37,2014-01-15 17:10:00,
2014-01-15 09:15:00,43.6,12.6,30.42,ESE,107,4.6,4.6,28,0.00,CLR,,0.00,WeatherDisplay:10.37,2014-01-15 17:15:00,
2014-01-15 09:20:00,44.2,13.1,30.42,ESE,107,3.5,3.5,28,0.00,CLR,,0.00,WeatherDisplay:10.37,2014-01-15 17:20:00,
2014-01-15 09:25:00,44.8,13.6,30.42,ESE,107,3.5,3.5,28,0.00,CLR,,0.00,WeatherDisplay:10.37,2014-01-15 17:25:00,
2014-01-15 09:30:00,45.1,13.1,30.42,ESE,102,3.5,3.5,27,0.00,CLR,,0.00,WeatherDisplay:10.37,2014-01-15 17:30:00,
2014-01-15 09:35:00,45.6,12.6,30.42,ESE,104,3.5,3.5,26,0.00,CLR,,0.00,WeatherDisplay:10.37,2014-01-15 17:35:00,
2014-01-15 09:40:00,45.3,13.2,30.42,ESE,103,4.6,4.6,27,0.00,CLR,,0.00,WeatherDisplay:10.37,2014-01-15 17:40:00,
2014-01-15 09:45:00,45.9,13.7,30.42,ESE,103,3.5,3.5,27,0.00,CLR,,0.00,WeatherDisplay:10.37,2014-01-15 17:45:00,
2014-01-15 09:50:00,46.9,14.6,30.42,ESE,103,3.5,3.5,27,0.00,CLR,,0.00,WeatherDisplay:10.37,2014-01-15 17:50:00,
2014-01-15 09:55:00,47.4,14.2,30.42,ESE,103,3.5,3.5,26,0.00,CLR,,0.00,WeatherDisplay:10.37,2014-01-15 17:55:00,
2014-01-15 10:00:00,47.9,14.6,30.42,ESE,103,3.5,3.5,26,0.00,CLR,,0.00,WeatherDisplay:10.37,2014-01-15 18:00:00,
2014-01-15 10:05:00,48.6,15.2,30.42,ESE,104,2.3,2.3,26,0.00,CLR,,0.00,WeatherDisplay:10.37,2014-01-15 18:05:00,
2014-01-15 10:10:00,49.0,14.7,30.42,ESE,105,3.5,3.5,25,0.00,CLR,,0.00,WeatherDisplay:10.37,2014-01-15 18:10:00,
2014-01-15 10:15:00,49.2,14.8,30.41,ESE,105,1.0,1.0,25,0.00,CLR,,0.00,WeatherDisplay:10.37,2014-01-15 18:15:00,
2014-01-15 10:20:00,49.8,15.3,30.41,ESE,105,3.5,3.5,25,0.00,CLR,,0.00,WeatherDisplay:10.37,2014-01-15 18:20:00,
2014-01-15 10:25:00,50.4,14.9,30.41,ESE,105,3.5,3.5,24,0.00,CLR,,0.00,WeatherDisplay:10.37,2014-01-15 18:25:00,
2014-01-15 10:30:00,50.9,14.4,30.41,ESE,105,2.0,2.0,23,0.00,CLR,,0.00,WeatherDisplay:10.37,2014-01-15 18:30:00,
2014-01-15 10:35:00,51.6,15.0,30.41,ESE,105,1.2,1.2,23,0.00,CLR,,0.00,WeatherDisplay:10.37,2014-01-15 18:35:00,
2014-01-15 10:40:00,52.3,14.5,30.40,ESE,105,0.0,0.0,22,0.00,CLR,,0.00,WeatherDisplay:10.37,2014-01-15 18:40:00,
2014-01-15 10:45:00,53.1,15.2,30.40,ESE,105,0.0,0.0,22,0.00,CLR,,0.00,WeatherDisplay:10.37,2014-01-15 18:45:00,
2014-01-15 10:50:00,53.9,15.9,30.40,ESE,105,0.0,0.0,22,0.00,CLR,,0.00,WeatherDisplay:10.37,2014-01-15 18:50:00,
2014-01-15 10:55:00,54.3,16.2,30.40,ESE,105,0.0,0.0,22,0.00,CLR,,0.00,WeatherDisplay:10.37,2014-01-15 18:55:00,
2014-01-15 11:00:00,55.6,16.2,30.39,ESE,105,0.0,0.0,21,0.00,CLR,,0.00,WeatherDisplay:10.37,2014-01-15 19:00:00,
2014-01-15 11:05:00,56.7,16.0,30.39,ESE,105,1.0,1.0,20,0.00,CLR,,0.00,WeatherDisplay:10.37,2014-01-15 19:05:00,
2014-01-15 11:10:00,57.6,16.8,30.39,ESE,105,3.5,3.5,20,0.00,CLR,,0.00,WeatherDisplay:10.37,2014-01-15 19:10:00,
2014-01-15 11:15:00,58.1,17.2,30.38,ESE,107,2.3,2.3,20,0.00,CLR,,0.00,WeatherDisplay:10.37,2014-01-15 19:15:00,
2014-01-15 11:20:00,58.6,16.4,30.38,ESE,108,3.5,3.5,19,0.00,CLR,,0.00,WeatherDisplay:10.37,2014-01-15 19:20:00,
2014-01-15 11:25:00,59.0,16.7,30.37,SSE,162,5.8,5.8,19,0.00,CLR,,0.00,WeatherDisplay:10.37,2014-01-15 19:25:00,
2014-01-15 11:30:00,59.7,16.1,30.37,ESE,107,2.3,2.3,18,0.00,CLR,,0.00,WeatherDisplay:10.37,2014-01-15 19:30:00,
2014-01-15 11:35:00,59.7,17.3,30.37,ESE,107,2.3,2.3,19,0.00,CLR,,0.00,WeatherDisplay:10.37,2014-01-15 19:35:00,
2014-01-15 11:40:00,60.4,16.6,30.36,ESE,105,0.0,0.0,18,0.00,CLR,,0.00,WeatherDisplay:10.37,2014-01-15 19:40:00,
2014-01-15 11:45:00,61.3,17.4,30.36,ESE,105,0.0,0.0,18,0.00,CLR,,0.00,WeatherDisplay:10.37,2014-01-15 19:45:00,
2014-01-15 11:50:00,62.1,18.0,30.35,ESE,104,0.0,0.0,18,0.00,CLR,,0.00,WeatherDisplay:10.37,2014-01-15 19:50:00,
2014-01-15 11:55:00,63.1,17.5,30.35,East,97,0.0,0.0,17,0.00,CLR,,0.00,WeatherDisplay:10.37,2014-01-15 19:55:00,
2014-01-15 12:00:00,63.4,16.4,30.35,ENE,74,3.5,3.5,16,0.00,CLR,,0.00,WeatherDisplay:10.37,2014-01-15 20:00:00,
2014-01-15 12:05:00,63.8,16.7,30.34,ENE,69,3.5,3.5,16,0.00,CLR,,0.00,WeatherDisplay:10.37,2014-01-15 20:05:00,
2014-01-15 12:10:00,64.4,17.2,30.34,East,87,5.8,5.8,16,0.00,CLR,,0.00,WeatherDisplay:10.37,2014-01-15 20:10:00,
2014-01-15 12:15:00,64.7,15.9,30.34,ENE,66,10.4,10.4,15,0.00,CLR,,0.00,WeatherDisplay:10.37,2014-01-15 20:15:00,
2014-01-15 12:20:00,64.8,16.0,30.33,ESE,106,11.5,11.5,15,0.00,CLR,,0.00,WeatherDisplay:10.37,2014-01-15 20:20:00,
2014-01-15 12:25:00,65.0,16.2,30.33,ESE,115,9.2,9.2,15,0.00,CLR,,0.00,WeatherDisplay:10.37,2014-01-15 20:25:00,
2014-01-15 12:30:00,65.3,16.4,30.33,ESE,116,10.4,10.4,15,0.00,CLR,,0.00,WeatherDisplay:10.37,2014-01-15 20:30:00,
2014-01-15 12:35:00,65.7,15.1,30.32,ESE,104,8.1,8.1,14,0.00,CLR,,0.00,WeatherDisplay:10.37,2014-01-15 20:35:00,
2014-01-15 12:40:00,65.6,16.6,30.32,East,98,10.4,10.4,15,0.00,CLR,,0.00,WeatherDisplay:10.37,2014-01-15 20:40:00,
2014-01-15 12:45:00,65.7,15.1,30.32,East,83,6.9,6.9,14,0.00,CLR,,0.00,WeatherDisplay:10.37,2014-01-15 20:45:00,
2014-01-15 12:50:00,66.1,15.5,30.31,ENE,63,3.5,3.5,14,0.00,CLR,,0.00,WeatherDisplay:10.37,2014-01-15 20:50:00,
2014-01-15 12:55:00,66.4,15.7,30.31,East,88,5.8,5.8,14,0.00,CLR,,0.00,WeatherDisplay:10.37,2014-01-15 20:55:00,
2014-01-15 13:00:00,66.4,15.7,30.31,East,93,6.9,6.9,14,0.00,CLR,,0.00,WeatherDisplay:10.37,2014-01-15 21:00:00,
2014-01-15 13:06:00,66.7,15.9,30.31,East,101,10.4,10.4,14,0.00,CLR,,0.00,WeatherDisplay:10.37,2014-01-15 21:06:00,
2014-01-15 13:11:00,66.7,15.9,30.30,East,98,6.0,6.0,14,0.00,CLR,,0.00,WeatherDisplay:10.37,2014-01-15 21:11:00,
2014-01-15 13:16:00,67.0,16.2,30.30,ESE,103,8.1,8.1,14,0.00,CLR,,0.00,WeatherDisplay:10.37,2014-01-15 21:16:00,
2014-01-15 13:21:00,67.1,16.3,30.30,East,81,9.2,9.2,14,0.00,CLR,,0.00,WeatherDisplay:10.37,2014-01-15 21:21:00,
2014-01-15 13:26:00,67.0,16.2,30.30,ESE,103,9.2,9.2,14,0.00,CLR,,0.00,WeatherDisplay:10.37,2014-01-15 21:26:00,
2014-01-15 13:31:00,67.2,16.3,30.30,ESE,115,4.6,4.9,14,0.00,CLR,,0.00,WeatherDisplay:10.37,2014-01-15 21:31:00,
2014-01-15 13:36:00,67.4,16.5,30.29,ESE,105,6.9,6.9,14,0.00,CLR,,0.00,WeatherDisplay:10.37,2014-01-15 21:36:00,
2014-01-15 13:41:00,67.8,16.8,30.29,East,90,15.0,15.0,14,0.00,CLR,,0.00,WeatherDisplay:10.37,2014-01-15 21:41:00,
2014-01-15 13:46:00,67.9,16.9,30.29,ESE,121,11.5,11.5,14,0.00,CLR,,0.00,WeatherDisplay:10.37,2014-01-15 21:46:00,
2014-01-15 13:51:00,67.7,16.7,30.29,East,99,12.7,12.7,14,0.00,CLR,,0.00,WeatherDisplay:10.37,2014-01-15 21:51:00,
2014-01-15 13:56:00,67.9,15.2,30.29,East,89,6.9,6.9,13,0.00,CLR,,0.00,WeatherDisplay:10.37,2014-01-15 21:56:00,
2014-01-15 14:01:00,67.9,15.2,30.29,ENE,78,6.9,6.9,13,0.00,CLR,,0.00,WeatherDisplay:10.37,2014-01-15 22:01:00,
2014-01-15 14:06:00,68.3,15.5,30.29,ESE,123,10.4,10.4,13,0.00,CLR,,0.00,WeatherDisplay:10.37,2014-01-15 22:06:00,
2014-01-15 14:11:00,68.2,15.4,30.29,East,81,5.8,5.8,13,0.00,CLR,,0.00,WeatherDisplay:10.37,2014-01-15 22:11:00,
2014-01-15 14:16:00,68.2,15.4,30.29,ESE,109,5.8,5.8,13,0.00,CLR,,0.00,WeatherDisplay:10.37,2014-01-15 22:16:00,
2014-01-15 14:21:00,68.2,15.4,30.29,East,82,6.9,6.9,13,0.00,CLR,,0.00,WeatherDisplay:10.37,2014-01-15 22:21:00,
2014-01-15 14:26:00,68.2,15.4,30.29,ENE,61,10.4,10.4,13,0.00,CLR,,0.00,WeatherDisplay:10.37,2014-01-15 22:26:00,
2014-01-15 14:31:00,68.8,15.9,30.29,ENE,76,9.2,9.2,13,0.00,CLR,,0.00,WeatherDisplay:10.37,2014-01-15 22:31:00,
2014-01-15 14:36:00,68.5,15.7,30.29,East,90,3.5,3.5,13,0.00,CLR,,0.00,WeatherDisplay:10.37,2014-01-15 22:36:00,
2014-01-15 14:41:00,68.8,15.9,30.28,East,82,10.4,10.4,13,0.00,CLR,,0.00,WeatherDisplay:10.37,2014-01-15 22:41:00,
2014-01-15 14:46:00,69.1,16.1,30.28,ENE,64,9.2,9.2,13,0.00,CLR,,0.00,WeatherDisplay:10.37,2014-01-15 22:46:00,
2014-01-15 14:51:00,69.0,16.0,30.28,ENE,71,2.3,2.3,13,0.00,CLR,,0.00,WeatherDisplay:10.37,2014-01-15 22:51:00,
2014-01-15 14:56:00,69.1,16.1,30.28,East,99,11.5,11.5,13,0.00,CLR,,0.00,WeatherDisplay:10.37,2014-01-15 22:56:00,
2014-01-15 15:01:00,68.8,15.9,30.28,ESE,115,9.2,9.2,13,0.00,CLR,,0.00,WeatherDisplay:10.37,2014-01-15 23:01:00,
2014-01-15 15:06:00,69.0,14.2,30.28,NE,45,3.5,3.5,12,0.00,CLR,,0.00,WeatherDisplay:10.37,2014-01-15 23:06:00,
2014-01-15 15:11:00,69.3,16.3,30.28,NE,46,5.0,5.0,13,0.00,CLR,,0.00,WeatherDisplay:10.37,2014-01-15 23:11:00,
2014-01-15 15:16:00,69.6,14.7,30.28,NE,40,5.0,5.0,12,0.00,CLR,,0.00,WeatherDisplay:10.37,2014-01-15 23:16:00,
2014-01-15 15:21:00,69.8,14.8,30.28,ENE,65,4.0,4.0,12,0.00,CLR,,0.00,WeatherDisplay:10.37,2014-01-15 23:21:00,
2014-01-15 15:26:00,69.5,14.6,30.28,ENE,71,5.8,5.8,12,0.00,CLR,,0.00,WeatherDisplay:10.37,2014-01-15 23:26:00,
2014-01-15 15:31:00,69.2,14.4,30.28,ENE,68,3.5,3.5,12,0.00,CLR,,0.00,WeatherDisplay:10.37,2014-01-15 23:31:00,
2014-01-15 15:36:00,69.0,14.2,30.28,ESE,105,10.4,10.4,12,0.00,CLR,,0.00,WeatherDisplay:10.37,2014-01-15 23:36:00,
2014-01-15 15:41:00,68.6,15.7,30.28,ESE,107,10.4,10.4,13,0.00,CLR,,0.00,WeatherDisplay:10.37,2014-01-15 23:41:00,
2014-01-15 15:46:00,68.6,13.9,30.28,East,82,5.8,5.8,12,0.00,CLR,,0.00,WeatherDisplay:10.37,2014-01-15 23:46:00,
2014-01-15 15:51:00,68.8,14.1,30.28,ENE,75,4.0,4.0,12,0.00,CLR,,0.00,WeatherDisplay:10.37,2014-01-15 23:51:00,
2014-01-15 15:56:00,68.6,13.9,30.28,East,90,5.8,5.8,12,0.00,CLR,,0.00,WeatherDisplay:10.37,2014-01-15 23:56:00,
2014-01-15 16:01:00,68.5,13.8,30.28,East,91,6.0,6.0,12,0.00,CLR,,0.00,WeatherDisplay:10.37,2014-01-16 00:01:00,
2014-01-15 16:06:00,68.5,15.7,30.28,East,90,3.5,3.5,13,0.00,CLR,,0.00,WeatherDisplay:10.37,2014-01-16 00:06:00,
2014-01-15 16:11:00,68.4,15.6,30.27,East,95,3.5,3.5,13,0.00,CLR,,0.00,WeatherDisplay:10.37,2014-01-16 00:11:00,
2014-01-15 16:16:00,68.3,15.5,30.27,East,95,2.3,2.3,13,0.00,CLR,,0.00,WeatherDisplay:10.37,2014-01-16 00:16:00,
2014-01-15 16:21:00,68.1,15.3,30.27,East,95,3.5,3.5,13,0.00,CLR,,0.00,WeatherDisplay:10.37,2014-01-16 00:21:00,
2014-01-15 16:26:00,67.9,15.2,30.27,East,95,3.5,3.5,13,0.00,CLR,,0.00,WeatherDisplay:10.37,2014-01-16 00:26:00,
2014-01-15 16:31:00,67.7,16.7,30.27,East,95,3.5,3.5,14,0.00,CLR,,0.00,WeatherDisplay:10.37,2014-01-16 00:31:00,
2014-01-15 16:36:00,67.5,16.6,30.27,East,95,0.0,0.0,14,0.00,CLR,,0.00,WeatherDisplay:10.37,2014-01-16 00:36:00,
2014-01-15 16:41:00,67.3,16.4,30.27,East,95,0.0,0.0,14,0.00,CLR,,0.00,WeatherDisplay:10.37,2014-01-16 00:41:00,
2014-01-15 16:46:00,67.0,16.2,30.27,East,95,0.0,0.0,14,0.00,CLR,,0.00,WeatherDisplay:10.37,2014-01-16 00:46:00,
2014-01-15 16:51:00,66.7,15.9,30.27,East,95,0.0,0.0,14,0.00,CLR,,0.00,WeatherDisplay:10.37,2014-01-16 00:51:00,
2014-01-15 16:56:00,66.4,15.7,30.27,East,95,0.0,0.0,14,0.00,CLR,,0.00,WeatherDisplay:10.37,2014-01-16 00:56:00,
2014-01-15 17:01:00,66.1,15.5,30.27,East,95,0.0,0.0,14,0.00,CLR,,0.00,WeatherDisplay:10.37,2014-01-16 01:01:00,
2014-01-15 17:06:00,65.8,15.2,30.27,East,95,3.5,3.5,14,0.00,CLR,,0.00,WeatherDisplay:10.37,2014-01-16 01:06:00,
2014-01-15 17:11:00,65.3,14.8,30.27,East,95,3.5,3.5,14,0.00,CLR,,0.00,WeatherDisplay:10.37,2014-01-16 01:11:00,
2014-01-15 17:16:00,65.0,14.6,30.27,East,95,3.5,3.5,14,0.00,CLR,,0.00,WeatherDisplay:10.37,2014-01-16 01:16:00,
2014-01-15 17:21:00,64.4,14.1,30.27,East,95,3.5,3.5,14,0.00,CLR,,0.00,WeatherDisplay:10.37,2014-01-16 01:21:00,
2014-01-15 17:26:00,63.8,13.6,30.27,East,95,3.5,3.5,14,0.00,CLR,,0.00,WeatherDisplay:10.37,2014-01-16 01:26:00,
2014-01-15 17:31:00,63.3,13.2,30.27,East,95,2.3,2.3,14,0.00,CLR,,0.00,WeatherDisplay:10.37,2014-01-16 01:31:00,
2014-01-15 17:36:00,62.9,12.9,30.27,East,95,2.3,2.3,14,0.00,CLR,,0.00,WeatherDisplay:10.37,2014-01-16 01:36:00,
2014-01-15 17:41:00,62.7,14.3,30.26,East,95,4.0,4.0,15,0.00,CLR,,0.00,WeatherDisplay:10.37,2014-01-16 01:41:00,
2014-01-15 17:46:00,62.6,14.2,30.26,East,95,3.5,3.5,15,0.00,CLR,,0.00,WeatherDisplay:10.37,2014-01-16 01:46:00,
2014-01-15 17:51:00,62.4,14.1,30.26,East,95,3.5,3.5,15,0.00,CLR,,0.00,WeatherDisplay:10.37,2014-01-16 01:51:00,
2014-01-15 17:56:00,62.2,13.9,30.26,NNE,24,4.0,4.0,15,0.00,CLR,,0.00,WeatherDisplay:10.37,2014-01-16 01:56:00,
2014-01-15 18:01:00,62.0,13.8,30.26,NNE,18,3.5,3.6,15,0.00,CLR,,0.00,WeatherDisplay:10.37,2014-01-16 02:01:00,
2014-01-15 18:06:00,62.0,13.8,30.26,NNE,15,4.6,4.6,15,0.00,CLR,,0.00,WeatherDisplay:10.37,2014-01-16 02:06:00,
2014-01-15 18:11:00,62.0,13.8,30.26,NNE,16,4.0,4.0,15,0.00,CLR,,0.00,WeatherDisplay:10.37,2014-01-16 02:11:00,
2014-01-15 18:16:00,61.9,13.7,30.26,NNE,19,6.0,6.0,15,0.00,CLR,,0.00,WeatherDisplay:10.37,2014-01-16 02:16:00,
2014-01-15 18:21:00,61.8,13.6,30.26,NNE,15,4.6,4.6,15,0.00,CLR,,0.00,WeatherDisplay:10.37,2014-01-16 02:21:00,
2014-01-15 18:26:00,61.5,13.4,30.26,NNE,19,4.6,4.6,15,0.00,CLR,,0.00,WeatherDisplay:10.37,2014-01-16 02:26:00,
2014-01-15 18:31:00,61.1,13.0,30.26,NNE,19,4.6,4.6,15,0.00,CLR,,0.00,WeatherDisplay:10.37,2014-01-16 02:31:00,
2014-01-15 18:36:00,61.1,13.0,30.26,NNE,26,6.0,6.0,15,0.00,CLR,,0.00,WeatherDisplay:10.37,2014-01-16 02:36:00,
2014-01-15 18:41:00,60.9,12.9,30.26,NNE,19,5.8,5.8,15,0.00,CLR,,0.00,WeatherDisplay:10.37,2014-01-16 02:41:00,
2014-01-15 18:46:00,60.7,12.7,30.26,North,11,5.8,5.8,15,0.00,CLR,,0.00,WeatherDisplay:10.37,2014-01-16 02:46:00,
2014-01-15 18:51:00,60.6,12.6,30.26,NNE,19,4.6,4.6,15,0.00,CLR,,0.00,WeatherDisplay:10.37,2014-01-16 02:51:00,
2014-01-15 18:56:00,60.6,12.6,30.27,NNE,13,5.0,5.0,15,0.00,CLR,,0.00,WeatherDisplay:10.37,2014-01-16 02:56:00,
2014-01-15 19:01:00,60.5,12.5,30.27,NNE,15,4.6,4.6,15,0.00,CLR,,0.00,WeatherDisplay:10.37,2014-01-16 03:01:00,
2014-01-15 19:06:00,60.1,12.2,30.27,NNE,19,4.6,4.6,15,0.00,CLR,,0.00,WeatherDisplay:10.37,2014-01-16 03:06:00,
2014-01-15 19:11:00,59.8,13.4,30.27,NNE,20,3.5,3.5,16,0.00,CLR,,0.00,WeatherDisplay:10.37,2014-01-16 03:11:00,
2014-01-15 19:16:00,59.3,13.0,30.27,NNE,19,4.0,4.0,16,0.00,CLR,,0.00,WeatherDisplay:10.37,2014-01-16 03:16:00,
2014-01-15 19:21:00,59.0,12.8,30.27,NNE,21,4.0,4.0,16,0.00,CLR,,0.00,WeatherDisplay:10.37,2014-01-16 03:21:00,
2014-01-15 19:26:00,58.7,12.6,30.27,NNE,21,3.5,3.5,16,0.00,CLR,,0.00,WeatherDisplay:10.37,2014-01-16 03:26:00,
2014-01-15 19:31:00,58.5,12.4,30.27,NNE,21,4.6,4.6,16,0.00,CLR,,0.00,WeatherDisplay:10.37,2014-01-16 03:31:00,
2014-01-15 19:36:00,58.5,12.4,30.27,NNE,21,4.6,4.6,16,0.00,CLR,,0.00,WeatherDisplay:10.37,2014-01-16 03:36:00,
2014-01-15 19:41:00,58.2,12.1,30.27,NNE,19,5.0,5.0,16,0.00,CLR,,0.00,WeatherDisplay:10.37,2014-01-16 03:41:00,
2014-01-15 19:46:00,58.1,12.1,30.27,North,11,3.5,3.5,16,0.00,CLR,,0.00,WeatherDisplay:10.37,2014-01-16 03:46:00,
2014-01-15 19:51:00,57.1,12.6,30.27,North,11,0.0,0.0,17,0.00,CLR,,0.00,WeatherDisplay:10.37,2014-01-16 03:51:00,
2014-01-15 19:56:00,55.3,12.4,30.27,North,10,0.0,0.0,18,0.00,CLR,,0.00,WeatherDisplay:10.37,2014-01-16 03:56:00,
2014-01-15 20:01:00,54.1,11.5,30.27,North,11,1.2,0.0,18,0.00,CLR,,0.00,WeatherDisplay:10.37,2014-01-16 04:01:00,
2014-01-15 20:06:00,53.1,11.9,30.27,North,10,0.0,0.0,19,0.00,CLR,,0.00,WeatherDisplay:10.37,2014-01-16 04:06:00,
2014-01-15 20:11:00,52.4,11.3,30.27,North,10,0.0,0.0,19,0.00,CLR,,0.00,WeatherDisplay:10.37,2014-01-16 04:11:00,
2014-01-15 20:16:00,52.2,11.1,30.27,North,10,0.0,0.0,19,0.00,CLR,,0.00,WeatherDisplay:10.37,2014-01-16 04:16:00,
2014-01-15 20:21:00,52.0,12.1,30.27,North,10,0.0,0.0,20,0.00,CLR,,0.00,WeatherDisplay:10.37,2014-01-16 04:21:00,
2014-01-15 20:26:00,51.7,11.9,30.27,North,10,0.0,0.0,20,0.00,CLR,,0.00,WeatherDisplay:10.37,2014-01-16 04:26:00,
2014-01-15 20:31:00,49.7,11.3,30.27,SSW,203,3.5,0.0,21,0.00,CLR,,0.00,WeatherDisplay:10.37,2014-01-16 04:31:00,
2014-01-15 20:36:00,49.9,11.4,30.28,SSW,203,4.0,4.0,21,0.00,CLR,,0.00,WeatherDisplay:10.37,2014-01-16 04:36:00,
2014-01-15 20:41:00,48.4,10.2,30.27,SSW,203,3.5,3.5,21,0.00,CLR,,0.00,WeatherDisplay:10.37,2014-01-16 04:41:00,
2014-01-15 20:46:00,46.3,9.5,30.28,SSW,203,4.6,4.6,22,0.00,CLR,,0.00,WeatherDisplay:10.37,2014-01-16 04:46:00,
2014-01-15 20:51:00,45.3,9.6,30.28,SSW,203,2.0,2.0,23,0.00,CLR,,0.00,WeatherDisplay:10.37,2014-01-16 04:51:00,
2014-01-15 20:56:00,45.0,10.3,30.28,SSW,203,3.5,3.5,24,0.00,CLR,,0.00,WeatherDisplay:10.37,2014-01-16 04:56:00,
2014-01-15 21:01:00,44.6,10.0,30.28,SSW,203,1.2,0.0,24,0.00,CLR,,0.00,WeatherDisplay:10.37,2014-01-16 05:01:00,
2014-01-15 21:02:00,44.5,9.9,30.28,SSW,203,0.0,0.7,24,0.00,CLR,,0.00,WeatherDisplay:10.37,2014-01-16 05:02:00,
2014-01-15 21:03:00,44.4,9.8,30.28,SSW,203,2.3,0.0,24,0.00,CLR,,0.00,WeatherDisplay:10.37,2014-01-16 05:03:00,
2014-01-15 21:04:00,44.3,10.6,30.28,SSW,203,3.0,3.0,25,0.00,CLR,,0.00,WeatherDisplay:10.37,2014-01-16 05:04:00,
2014-01-15 21:06:00,44.3,10.6,30.28,SSW,203,2.3,0.0,25,0.00,CLR,,0.00,WeatherDisplay:10.37,2014-01-16 05:06:00,
2014-01-15 21:11:00,44.7,11.0,30.28,SSW,203,1.2,1.2,25,0.00,CLR,,0.00,WeatherDisplay:10.37,2014-01-16 05:11:00,
2014-01-15 21:16:00,44.9,11.1,30.28,SSW,203,0.0,0.0,25,0.00,CLR,,0.00,WeatherDisplay:10.37,2014-01-16 05:16:00,
2014-01-15 21:21:00,44.9,11.1,30.28,SSW,203,0.0,0.0,25,0.00,CLR,,0.00,WeatherDisplay:10.37,2014-01-16 05:21:00,
2014-01-15 21:26:00,44.6,10.9,30.28,SSW,203,0.0,0.0,25,0.00,CLR,,0.00,WeatherDisplay:10.37,2014-01-16 05:26:00,
2014-01-15 21:31:00,44.2,10.5,30.28,SSW,203,0.0,0.0,25,0.00,CLR,,0.00,WeatherDisplay:10.37,2014-01-16 05:31:00,
2014-01-15 21:36:00,44.0,10.4,30.28,SSW,203,0.0,0.0,25,0.00,CLR,,0.00,WeatherDisplay:10.37,2014-01-16 05:36:00,
2014-01-15 21:41:00,43.7,11.0,30.28,SSW,203,0.0,0.0,26,0.00,CLR,,0.00,WeatherDisplay:10.37,2014-01-16 05:41:00,
2014-01-15 21:46:00,43.4,10.7,30.28,SSW,203,0.0,0.0,26,0.00,CLR,,0.00,WeatherDisplay:10.37,2014-01-16 05:46:00,
2014-01-15 21:51:00,43.2,10.6,30.28,SSW,203,0.0,0.0,26,0.00,CLR,,0.00,WeatherDisplay:10.37,2014-01-16 05:51:00,
2014-01-15 21:56:00,43.1,10.5,30.28,SSW,203,0.0,0.0,26,0.00,CLR,,0.00,WeatherDisplay:10.37,2014-01-16 05:56:00,
2014-01-15 22:01:00,43.0,10.4,30.28,SSW,203,0.0,0.0,26,0.00,CLR,,0.00,WeatherDisplay:10.37,2014-01-16 06:01:00,
2014-01-15 22:06:00,42.4,9.9,30.28,SSW,203,0.0,0.0,26,0.00,CLR,,0.00,WeatherDisplay:10.37,2014-01-16 06:06:00,
2014-01-15 22:11:00,41.8,10.2,30.28,SSW,203,2.3,2.3,27,0.00,CLR,,0.00,WeatherDisplay:10.37,2014-01-16 06:11:00,
2014-01-15 22:16:00,41.6,10.0,30.28,SSW,203,3.5,3.5,27,0.00,CLR,,0.00,WeatherDisplay:10.37,2014-01-16 06:16:00,
2014-01-15 22:21:00,41.3,10.6,30.28,SSW,203,3.5,3.5,28,0.00,CLR,,0.00,WeatherDisplay:10.37,2014-01-16 06:21:00,
2014-01-15 22:26:00,40.8,10.2,30.28,SSW,203,3.5,3.5,28,0.00,CLR,,0.00,WeatherDisplay:10.37,2014-01-16 06:26:00,
2014-01-15 22:31:00,40.0,9.5,30.28,SSW,203,0.0,0.0,28,0.00,CLR,,0.00,WeatherDisplay:10.37,2014-01-16 06:31:00,
2014-01-15 22:36:00,39.7,10.0,30.28,SSW,203,0.0,0.0,29,0.00,CLR,,0.00,WeatherDisplay:10.37,2014-01-16 06:36:00,
2014-01-15 22:41:00,39.9,10.2,30.28,SSW,203,0.0,0.0,29,0.00,CLR,,0.00,WeatherDisplay:10.37,2014-01-16 06:41:00,
2014-01-15 22:46:00,40.2,9.6,30.28,SSW,203,0.0,0.0,28,0.00,CLR,,0.00,WeatherDisplay:10.37,2014-01-16 06:46:00,
2014-01-15 22:51:00,40.1,9.6,30.27,SSW,203,0.0,0.0,28,0.00,CLR,,0.00,WeatherDisplay:10.37,2014-01-16 06:51:00,
2014-01-15 22:56:00,39.8,10.1,30.28,SSW,203,0.0,0.0,29,0.00,CLR,,0.00,WeatherDisplay:10.37,2014-01-16 06:56:00,
2014-01-15 23:01:00,39.6,9.9,30.28,SSW,203,0.0,0.0,29,0.00,CLR,,0.00,WeatherDisplay:10.37,2014-01-16 07:01:00,
2014-01-15 23:06:00,39.5,9.8,30.28,SSW,203,0.0,0.0,29,0.00,CLR,,0.00,WeatherDisplay:10.37,2014-01-16 07:06:00,
2014-01-15 23:11:00,39.6,9.9,30.28,SSW,203,0.0,0.0,29,0.00,CLR,,0.00,WeatherDisplay:10.37,2014-01-16 07:11:00,
2014-01-15 23:16:00,39.8,10.1,30.28,SSW,203,0.0,0.0,29,0.00,CLR,,0.00,WeatherDisplay:10.37,2014-01-16 07:16:00,
2014-01-15 23:21:00,39.9,9.4,30.28,SSW,203,0.0,0.0,28,0.00,CLR,,0.00,WeatherDisplay:10.37,2014-01-16 07:21:00,
2014-01-15 23:26:00,40.3,9.7,30.27,SSW,203,0.0,0.0,28,0.00,CLR,,0.00,WeatherDisplay:10.37,2014-01-16 07:26:00,
2014-01-15 23:31:00,41.1,9.6,30.27,SSW,203,0.0,0.0,27,0.00,CLR,,0.00,WeatherDisplay:10.37,2014-01-16 07:31:00,
2014-01-15 23:36:00,42.0,9.5,30.27,North,360,3.5,3.5,26,0.00,CLR,,0.00,WeatherDisplay:10.37,2014-01-16 07:36:00,
2014-01-15 23:41:00,42.1,9.6,30.27,NE,55,2.3,2.3,26,0.00,CLR,,0.00,WeatherDisplay:10.37,2014-01-16 07:41:00,
2014-01-15 23:46:00,41.7,9.3,30.27,ENE,67,4.6,4.6,26,0.00,CLR,,0.00,WeatherDisplay:10.37,2014-01-16 07:46:00,
2014-01-15 23:51:00,40.8,9.3,30.27,ENE,67,0.0,0.0,27,0.00,CLR,,0.00,WeatherDisplay:10.37,2014-01-16 07:51:00,
2014-01-15 23:56:00,40.2,8.8,30.27,ENE,67,1.2,1.2,27,0.00,CLR,,0.00,WeatherDisplay:10.37,2014-01-16 07:56:00,